sensor_id;sensor_type;location;lat;lon;timestamp;pressure;altitude;pressure_sealevel;temperature;humidity
9893;BME280;4985;49.092;8.542;2023-04-09T00:01:28;100054.06;;;16.47;51.80
9893;BME280;4985;49.092;8.542;2023-04-09T00:03:55;100052.25;;;16.48;51.80
9893;BME280;4985;49.092;8.542;2023-04-09T00:06:21;100051.41;;;16.47;51.80
9893;BME280;4985;49.092;8.542;2023-04-09T00:08:48;100049.75;;;16.46;51.81
9893;BME280;4985;49.092;8.542;2023-04-09T00:11:14;100047.09;;;16.46;51.81
9893;BME280;4985;49.092;8.542;2023-04-09T00:13:42;100038.31;;;16.46;51.81
9893;BME280;4985;49.092;8.542;2023-04-09T00:16:09;100044.44;;;16.46;51.81
9893;BME280;4985;49.092;8.542;2023-04-09T00:18:36;100040.97;;;16.46;51.81
9893;BME280;4985;49.092;8.542;2023-04-09T00:21:02;100042.62;;;16.47;51.81
9893;BME280;4985;49.092;8.542;2023-04-09T00:23:29;100043.63;;;16.46;51.81
9893;BME280;4985;49.092;8.542;2023-04-09T00:25:56;100035.66;;;16.46;51.81
9893;BME280;4985;49.092;8.542;2023-04-09T00:28:23;100038.31;;;16.46;51.81
9893;BME280;4985;49.092;8.542;2023-04-09T00:30:51;100026.56;;;16.40;51.81
9893;BME280;4985;49.092;8.542;2023-04-09T00:33:17;100040.16;;;16.45;51.81
9893;BME280;4985;49.092;8.542;2023-04-09T00:35:44;100028.69;;;16.45;51.82
9893;BME280;4985;49.092;8.542;2023-04-09T00:38:11;100025.22;;;16.44;51.81
9893;BME280;4985;49.092;8.542;2023-04-09T00:40:37;100030.53;;;16.44;51.80
9893;BME280;4985;49.092;8.542;2023-04-09T00:43:04;100036.66;;;16.45;51.80
9893;BME280;4985;49.092;8.542;2023-04-09T00:45:31;100026.03;;;16.45;51.81
9893;BME280;4985;49.092;8.542;2023-04-09T00:47:59;100028.69;;;16.45;51.81
9893;BME280;4985;49.092;8.542;2023-04-09T00:50:26;100032.38;;;16.44;51.81
9893;BME280;4985;49.092;8.542;2023-04-09T00:52:52;100036.66;;;16.45;51.81
9893;BME280;4985;49.092;8.542;2023-04-09T00:55:20;100040.34;;;16.44;51.81
9893;BME280;4985;49.092;8.542;2023-04-09T00:57:46;100039.31;;;16.45;51.81
9893;BME280;4985;49.092;8.542;2023-04-09T01:00:13;100035.84;;;16.44;51.81
9893;BME280;4985;49.092;8.542;2023-04-09T01:02:40;100033.37;;;16.43;51.82
9893;BME280;4985;49.092;8.542;2023-04-09T01:05:09;100040.34;;;16.44;51.82
9893;BME280;4985;49.092;8.542;2023-04-09T01:07:58;100035.03;;;16.44;51.80
9893;BME280;4985;49.092;8.542;2023-04-09T01:10:32;100037.88;;;16.42;51.81
9893;BME280;4985;49.092;8.542;2023-04-09T01:13:06;100041.34;;;16.43;51.82
9893;BME280;4985;49.092;8.542;2023-04-09T01:15:37;100038.69;;;16.43;51.82
9893;BME280;4985;49.092;8.542;2023-04-09T01:18:09;100038.69;;;16.43;51.81
9893;BME280;4985;49.092;8.542;2023-04-09T01:20:39;100030.03;;;16.41;51.83
9893;BME280;4985;49.092;8.542;2023-04-09T01:23:15;100037.00;;;16.42;51.82
9893;BME280;4985;49.092;8.542;2023-04-09T01:25:52;100033.53;;;16.41;51.83
9893;BME280;4985;49.092;8.542;2023-04-09T01:28:26;100026.56;;;16.40;51.82
9893;BME280;4985;49.092;8.542;2023-04-09T01:30:57;100030.03;;;16.41;51.83
9893;BME280;4985;49.092;8.542;2023-04-09T01:33:25;100038.84;;;16.41;51.82
9893;BME280;4985;49.092;8.542;2023-04-09T01:35:52;100031.88;;;16.40;51.82
9893;BME280;4985;49.092;8.542;2023-04-09T01:38:20;100039.03;;;16.40;51.82
9893;BME280;4985;49.092;8.542;2023-04-09T01:40:48;100033.72;;;16.40;51.82
9893;BME280;4985;49.092;8.542;2023-04-09T01:43:17;100033.72;;;16.40;51.84
9893;BME280;4985;49.092;8.542;2023-04-09T01:45:46;100038.19;;;16.39;51.82
9893;BME280;4985;49.092;8.542;2023-04-09T01:48:14;100039.22;;;16.38;51.83
9893;BME280;4985;49.092;8.542;2023-04-09T01:50:41;100039.22;;;16.38;51.83
9893;BME280;4985;49.092;8.542;2023-04-09T01:53:08;100031.25;;;16.38;51.83
9893;BME280;4985;49.092;8.542;2023-04-09T01:55:35;100028.59;;;16.38;51.84
9893;BME280;4985;49.092;8.542;2023-04-09T01:58:01;100032.06;;;16.39;51.83
9893;BME280;4985;49.092;8.542;2023-04-09T02:00:31;100037.37;;;16.39;51.83
9893;BME280;4985;49.092;8.542;2023-04-09T02:03:06;100033.72;;;16.40;51.82
9893;BME280;4985;49.092;8.542;2023-04-09T02:05:37;100042.69;;;16.39;51.82
9893;BME280;4985;49.092;8.542;2023-04-09T02:08:06;100041.06;;;16.38;51.82
9893;BME280;4985;49.092;8.542;2023-04-09T02:10:34;100035.72;;;16.38;51.82
9893;BME280;4985;49.092;8.542;2023-04-09T02:13:02;100041.06;;;16.38;51.82
9893;BME280;4985;49.092;8.542;2023-04-09T02:15:30;100033.06;;;16.38;51.82
9893;BME280;4985;49.092;8.542;2023-04-09T02:17:57;100030.41;;;16.38;51.84
9893;BME280;4985;49.092;8.542;2023-04-09T02:20:25;100033.25;;;16.36;51.84
9893;BME280;4985;49.092;8.542;2023-04-09T02:22:52;100034.09;;;16.37;51.84
9893;BME280;4985;49.092;8.542;2023-04-09T02:25:21;100028.78;;;16.37;51.83
9893;BME280;4985;49.092;8.542;2023-04-09T02:27:47;100028.78;;;16.37;51.83
9893;BME280;4985;49.092;8.542;2023-04-09T02:30:14;100023.84;;;16.34;51.84
9893;BME280;4985;49.092;8.542;2023-04-09T02:32:40;100030.59;;;16.36;51.83
9893;BME280;4985;49.092;8.542;2023-04-09T02:35:07;100030.59;;;16.36;51.83
9893;BME280;4985;49.092;8.542;2023-04-09T02:37:35;100027.13;;;16.36;51.83
9893;BME280;4985;49.092;8.542;2023-04-09T02:40:02;100029.78;;;16.36;51.83
9893;BME280;4985;49.092;8.542;2023-04-09T02:42:29;100017.50;;;16.35;51.84
9893;BME280;4985;49.092;8.542;2023-04-09T02:44:55;100028.13;;;16.35;51.84
9893;BME280;4985;49.092;8.542;2023-04-09T02:47:22;100029.78;;;16.36;51.84
9893;BME280;4985;49.092;8.542;2023-04-09T02:49:50;100028.97;;;16.35;51.83
9893;BME280;4985;49.092;8.542;2023-04-09T02:52:17;100032.44;;;16.36;51.82
9893;BME280;4985;49.092;8.542;2023-04-09T02:54:48;100025.47;;;16.35;51.83
9893;BME280;4985;49.092;8.542;2023-04-09T02:57:14;100029.16;;;16.34;51.84
9893;BME280;4985;49.092;8.542;2023-04-09T02:59:41;100023.00;;;16.33;51.84
9893;BME280;4985;49.092;8.542;2023-04-09T03:02:08;100023.84;;;16.34;51.84
9893;BME280;4985;49.092;8.542;2023-04-09T03:04:34;100026.69;;;16.32;51.83
9893;BME280;4985;49.092;8.542;2023-04-09T03:07:01;100030.16;;;16.33;51.84
9893;BME280;4985;49.092;8.542;2023-04-09T03:09:27;100024.00;;;16.32;51.84
9893;BME280;4985;49.092;8.542;2023-04-09T03:11:56;100024.84;;;16.33;51.83
9893;BME280;4985;49.092;8.542;2023-04-09T03:14:23;100017.88;;;16.32;51.84
9893;BME280;4985;49.092;8.542;2023-04-09T03:16:49;100022.19;;;16.33;51.83
9893;BME280;4985;49.092;8.542;2023-04-09T03:19:16;100016.03;;;16.32;51.85
9893;BME280;4985;49.092;8.542;2023-04-09T03:21:42;100012.56;;;16.32;51.85
9893;BME280;4985;49.092;8.542;2023-04-09T03:24:10;100020.53;;;16.32;51.84
9893;BME280;4985;49.092;8.542;2023-04-09T03:26:37;100017.88;;;16.32;51.85
9893;BME280;4985;49.092;8.542;2023-04-09T03:29:05;100015.22;;;16.32;51.85
9893;BME280;4985;49.092;8.542;2023-04-09T03:31:31;100012.72;;;16.30;51.84
9893;BME280;4985;49.092;8.542;2023-04-09T03:33:58;100013.53;;;16.30;51.85
9893;BME280;4985;49.092;8.542;2023-04-09T03:36:25;100016.19;;;16.30;51.84
9893;BME280;4985;49.092;8.542;2023-04-09T03:38:52;100012.72;;;16.30;51.85
9893;BME280;4985;49.092;8.542;2023-04-09T03:41:19;100012.72;;;16.30;51.85
9893;BME280;4985;49.092;8.542;2023-04-09T03:43:45;100011.91;;;16.29;51.86
9893;BME280;4985;49.092;8.542;2023-04-09T03:46:14;100013.53;;;16.30;51.85
9893;BME280;4985;49.092;8.542;2023-04-09T03:48:41;100014.56;;;16.29;51.85
9893;BME280;4985;49.092;8.542;2023-04-09T03:51:10;100012.72;;;16.30;51.84
9893;BME280;4985;49.092;8.542;2023-04-09T03:53:37;100011.91;;;16.29;51.83
9893;BME280;4985;49.092;8.542;2023-04-09T03:56:04;100016.37;;;16.29;51.83
9893;BME280;4985;49.092;8.542;2023-04-09T03:58:30;100021.69;;;16.29;51.83
9893;BME280;4985;49.092;8.542;2023-04-09T04:00:57;100022.53;;;16.29;51.83
9893;BME280;4985;49.092;8.542;2023-04-09T04:03:25;100011.06;;;16.29;51.83
9893;BME280;4985;49.092;8.542;2023-04-09T04:05:52;100020.06;;;16.28;51.83
9893;BME280;4985;49.092;8.542;2023-04-09T04:08:18;100016.37;;;16.29;51.82
9893;BME280;4985;49.092;8.542;2023-04-09T04:10:45;100017.41;;;16.28;51.81
9893;BME280;4985;49.092;8.542;2023-04-09T04:13:12;100019.22;;;16.27;51.81
9893;BME280;4985;49.092;8.542;2023-04-09T04:15:38;100030.69;;;16.28;51.82
9893;BME280;4985;49.092;8.542;2023-04-09T04:18:06;100024.53;;;16.27;51.81
9893;BME280;4985;49.092;8.542;2023-04-09T04:20:34;100026.19;;;16.28;51.80
9893;BME280;4985;49.092;8.542;2023-04-09T04:23:01;100019.22;;;16.27;51.81
9893;BME280;4985;49.092;8.542;2023-04-09T04:25:28;100020.06;;;16.28;51.82
9893;BME280;4985;49.092;8.542;2023-04-09T04:27:54;100019.22;;;16.27;51.80
9893;BME280;4985;49.092;8.542;2023-04-09T04:30:21;100022.91;;;16.26;51.80
9893;BME280;4985;49.092;8.542;2023-04-09T04:32:48;100022.91;;;16.26;51.82
9893;BME280;4985;49.092;8.542;2023-04-09T04:35:15;100023.72;;;16.27;51.82
9893;BME280;4985;49.092;8.542;2023-04-09T04:37:43;100021.06;;;16.27;51.80
9893;BME280;4985;49.092;8.542;2023-04-09T04:40:09;100022.91;;;16.26;51.80
9893;BME280;4985;49.092;8.542;2023-04-09T04:42:36;100027.37;;;16.26;51.80
9893;BME280;4985;49.092;8.542;2023-04-09T04:45:03;100026.56;;;16.25;51.79
9893;BME280;4985;49.092;8.542;2023-04-09T04:47:29;100022.06;;;16.26;51.79
9893;BME280;4985;49.092;8.542;2023-04-09T04:49:56;100026.56;;;16.25;51.79
9893;BME280;4985;49.092;8.542;2023-04-09T04:52:22;100031.88;;;16.25;51.80
9893;BME280;4985;49.092;8.542;2023-04-09T04:54:50;100027.56;;;16.24;51.80
9893;BME280;4985;49.092;8.542;2023-04-09T04:57:17;100025.75;;;16.25;51.80
9893;BME280;4985;49.092;8.542;2023-04-09T04:59:43;100035.53;;;16.24;51.81
9893;BME280;4985;49.092;8.542;2023-04-09T05:02:10;100031.06;;;16.25;51.80
9893;BME280;4985;49.092;8.542;2023-04-09T05:04:36;100030.22;;;16.24;51.81
9893;BME280;4985;49.092;8.542;2023-04-09T05:07:03;100033.91;;;16.23;51.81
9893;BME280;4985;49.092;8.542;2023-04-09T05:09:30;100038.38;;;16.23;51.79
9893;BME280;4985;49.092;8.542;2023-04-09T05:11:58;100037.56;;;16.22;51.80
9893;BME280;4985;49.092;8.542;2023-04-09T05:14:25;100030.59;;;16.21;51.79
9893;BME280;4985;49.092;8.542;2023-04-09T05:16:52;100033.06;;;16.23;51.79
9893;BME280;4985;49.092;8.542;2023-04-09T05:19:18;100037.56;;;16.22;51.79
9893;BME280;4985;49.092;8.542;2023-04-09T05:21:45;100037.56;;;16.22;51.79
9893;BME280;4985;49.092;8.542;2023-04-09T05:24:11;100036.75;;;16.22;51.80
9893;BME280;4985;49.092;8.542;2023-04-09T05:26:38;100036.75;;;16.22;51.79
9893;BME280;4985;49.092;8.542;2023-04-09T05:29:06;100031.44;;;16.22;51.79
9893;BME280;4985;49.092;8.542;2023-04-09T05:31:33;100040.41;;;16.21;51.81
9893;BME280;4985;49.092;8.542;2023-04-09T05:34:00;100043.87;;;16.21;51.80
9893;BME280;4985;49.092;8.542;2023-04-09T05:36:27;100042.22;;;16.20;51.82
9893;BME280;4985;49.092;8.542;2023-04-09T05:38:53;100042.22;;;16.20;51.82
9893;BME280;4985;49.092;8.542;2023-04-09T05:41:20;100044.06;;;16.20;51.83
9893;BME280;4985;49.092;8.542;2023-04-09T05:43:46;100051.19;;;16.19;51.84
9893;BME280;4985;49.092;8.542;2023-04-09T05:46:14;100050.34;;;16.19;51.83
9893;BME280;4985;49.092;8.542;2023-04-09T05:48:41;100046.87;;;16.18;51.86
9893;BME280;4985;49.092;8.542;2023-04-09T05:51:07;100059.16;;;16.19;51.86
9893;BME280;4985;49.092;8.542;2023-04-09T05:53:34;100054.84;;;16.18;51.86
9893;BME280;4985;49.092;8.542;2023-04-09T05:56:01;100057.50;;;16.18;51.88
9893;BME280;4985;49.092;8.542;2023-04-09T05:58:27;100058.50;;;16.17;51.88
9893;BME280;4985;49.092;8.542;2023-04-09T06:00:54;100056.69;;;16.18;51.87
9893;BME280;4985;49.092;8.542;2023-04-09T06:03:22;100056.69;;;16.18;51.88
9893;BME280;4985;49.092;8.542;2023-04-09T06:05:48;100053.19;;;16.17;51.88
9893;BME280;4985;49.092;8.542;2023-04-09T06:08:15;100059.34;;;16.18;51.89
9893;BME280;4985;49.092;8.542;2023-04-09T06:10:41;100055.03;;;16.17;51.88
9893;BME280;4985;49.092;8.542;2023-04-09T06:13:09;100055.03;;;16.17;51.86
9893;BME280;4985;49.092;8.542;2023-04-09T06:15:36;100055.84;;;16.17;51.87
9893;BME280;4985;49.092;8.542;2023-04-09T06:18:03;100055.84;;;16.17;51.85
9893;BME280;4985;49.092;8.542;2023-04-09T06:20:31;100055.84;;;16.17;51.85
9893;BME280;4985;49.092;8.542;2023-04-09T06:22:57;100064.66;;;16.18;51.83
9893;BME280;4985;49.092;8.542;2023-04-09T06:25:24;100060.16;;;16.18;51.84
9893;BME280;4985;49.092;8.542;2023-04-09T06:27:51;100060.97;;;16.19;51.83
9893;BME280;4985;49.092;8.542;2023-04-09T06:30:17;100062.81;;;16.18;51.82
9893;BME280;4985;49.092;8.542;2023-04-09T06:32:44;100066.31;;;16.19;51.82
9893;BME280;4985;49.092;8.542;2023-04-09T06:35:12;100066.47;;;16.17;51.82
9893;BME280;4985;49.092;8.542;2023-04-09T06:37:41;100062.00;;;16.18;51.85
9893;BME280;4985;49.092;8.542;2023-04-09T06:40:08;100059.53;;;16.16;51.85
9893;BME280;4985;49.092;8.542;2023-04-09T06:42:34;100064.84;;;16.16;51.86
9893;BME280;4985;49.092;8.542;2023-04-09T06:45:02;100070.97;;;16.17;51.87
9893;BME280;4985;49.092;8.542;2023-04-09T06:47:32;100064.00;;;16.16;51.87
9893;BME280;4985;49.092;8.542;2023-04-09T06:49:59;100071.16;;;16.15;51.87
9893;BME280;4985;49.092;8.542;2023-04-09T06:52:25;100071.16;;;16.15;51.88
9893;BME280;4985;49.092;8.542;2023-04-09T06:54:53;100078.31;;;16.15;51.89
9893;BME280;4985;49.092;8.542;2023-04-09T06:57:20;100075.66;;;16.15;51.90
9893;BME280;4985;49.092;8.542;2023-04-09T06:59:46;100073.00;;;16.15;51.90
9893;BME280;4985;49.092;8.542;2023-04-09T07:02:13;100077.47;;;16.14;51.91
9893;BME280;4985;49.092;8.542;2023-04-09T07:04:39;100077.47;;;16.14;51.91
9893;BME280;4985;49.092;8.542;2023-04-09T07:07:06;100078.31;;;16.15;51.91
9893;BME280;4985;49.092;8.542;2023-04-09T07:09:33;100072.16;;;16.14;51.91
9893;BME280;4985;49.092;8.542;2023-04-09T07:12:01;100084.44;;;16.15;51.89
9893;BME280;4985;49.092;8.542;2023-04-09T07:14:27;100078.31;;;16.15;51.91
9893;BME280;4985;49.092;8.542;2023-04-09T07:16:54;100074.81;;;16.14;51.90
9893;BME280;4985;49.092;8.542;2023-04-09T07:19:20;100088.09;;;16.14;51.92
9893;BME280;4985;49.092;8.542;2023-04-09T07:21:47;100086.44;;;16.13;51.91
9893;BME280;4985;49.092;8.542;2023-04-09T07:24:13;100093.41;;;16.14;51.92
9893;BME280;4985;49.092;8.542;2023-04-09T07:26:40;100091.75;;;16.13;51.91
9893;BME280;4985;49.092;8.542;2023-04-09T07:29:08;100088.09;;;16.14;51.92
9893;BME280;4985;49.092;8.542;2023-04-09T07:31:34;100082.78;;;16.14;51.94
9893;BME280;4985;49.092;8.542;2023-04-09T07:34:01;100081.13;;;16.13;51.95
9893;BME280;4985;49.092;8.542;2023-04-09T07:36:28;100081.13;;;16.13;51.94
9893;BME280;4985;49.092;8.542;2023-04-09T07:38:56;100085.44;;;16.14;51.93
9893;BME280;4985;49.092;8.542;2023-04-09T07:41:22;100088.09;;;16.14;51.94
9893;BME280;4985;49.092;8.542;2023-04-09T07:43:49;100089.94;;;16.14;51.95
9893;BME280;4985;49.092;8.542;2023-04-09T07:46:20;100087.28;;;16.14;51.95
9893;BME280;4985;49.092;8.542;2023-04-09T07:48:46;100076.19;;;16.10;51.95
9893;BME280;4985;49.092;8.542;2023-04-09T07:51:14;100079.31;;;16.14;51.95
9893;BME280;4985;49.092;8.542;2023-04-09T07:53:40;100080.31;;;16.13;51.97
9893;BME280;4985;49.092;8.542;2023-04-09T07:56:07;100084.81;;;16.12;51.97
9893;BME280;4985;49.092;8.542;2023-04-09T07:58:34;100083.16;;;16.11;51.98
9893;BME280;4985;49.092;8.542;2023-04-09T08:01:02;100087.47;;;16.12;51.99
9893;BME280;4985;49.092;8.542;2023-04-09T08:03:30;100080.50;;;16.11;52.00
9893;BME280;4985;49.092;8.542;2023-04-09T08:05:56;100080.50;;;16.11;52.01
9893;BME280;4985;49.092;8.542;2023-04-09T08:08:23;100095.44;;;16.12;52.00
9893;BME280;4985;49.092;8.542;2023-04-09T08:10:50;100083.97;;;16.12;52.00
9893;BME280;4985;49.092;8.542;2023-04-09T08:13:16;100093.78;;;16.11;52.01
9893;BME280;4985;49.092;8.542;2023-04-09T08:15:43;100087.66;;;16.11;52.01
9893;BME280;4985;49.092;8.542;2023-04-09T08:18:09;100087.66;;;16.11;52.03
9893;BME280;4985;49.092;8.542;2023-04-09T08:20:37;100083.16;;;16.11;52.04
9893;BME280;4985;49.092;8.542;2023-04-09T08:23:09;100085.00;;;16.11;52.02
9893;BME280;4985;49.092;8.542;2023-04-09T08:25:35;100082.34;;;16.11;52.02
9893;BME280;4985;49.092;8.542;2023-04-09T08:28:02;100088.66;;;16.10;52.05
9893;BME280;4985;49.092;8.542;2023-04-09T08:30:28;100086.81;;;16.10;52.06
9893;BME280;4985;49.092;8.542;2023-04-09T08:32:55;100091.31;;;16.10;52.07
9893;BME280;4985;49.092;8.542;2023-04-09T08:35:22;100091.47;;;16.08;52.08
9893;BME280;4985;49.092;8.542;2023-04-09T08:37:50;100094.13;;;16.08;52.09
9893;BME280;4985;49.092;8.542;2023-04-09T08:40:16;100099.44;;;16.08;52.11
9893;BME280;4985;49.092;8.542;2023-04-09T08:42:44;100099.44;;;16.08;52.11
9893;BME280;4985;49.092;8.542;2023-04-09T08:45:11;100096.78;;;16.08;52.12
9893;BME280;4985;49.092;8.542;2023-04-09T08:47:39;100101.09;;;16.09;52.12
9893;BME280;4985;49.092;8.542;2023-04-09T08:50:07;100091.31;;;16.10;52.13
9893;BME280;4985;49.092;8.542;2023-04-09T08:52:34;100088.66;;;16.10;52.15
9893;BME280;4985;49.092;8.542;2023-04-09T08:55:04;100090.47;;;16.09;52.15
9893;BME280;4985;49.092;8.542;2023-04-09T08:57:36;100089.47;;;16.10;52.16
9893;BME280;4985;49.092;8.542;2023-04-09T09:00:03;100096.44;;;16.11;52.14
9893;BME280;4985;49.092;8.542;2023-04-09T09:02:30;100093.78;;;16.11;52.12
9893;BME280;4985;49.092;8.542;2023-04-09T09:04:56;100094.59;;;16.12;52.12
9893;BME280;4985;49.092;8.542;2023-04-09T09:07:26;100097.25;;;16.12;52.13
9893;BME280;4985;49.092;8.542;2023-04-09T09:09:54;100096.44;;;16.11;52.12
9893;BME280;4985;49.092;8.542;2023-04-09T09:12:32;100093.78;;;16.11;52.13
9893;BME280;4985;49.092;8.542;2023-04-09T09:14:59;100093.78;;;16.11;52.15
9893;BME280;4985;49.092;8.542;2023-04-09T09:17:26;100090.31;;;16.11;52.18
9893;BME280;4985;49.092;8.542;2023-04-09T09:19:52;100099.91;;;16.12;52.22
9893;BME280;4985;49.092;8.542;2023-04-09T09:22:19;100101.75;;;16.11;52.24
9893;BME280;4985;49.092;8.542;2023-04-09T09:24:46;100098.91;;;16.13;52.22
9893;BME280;4985;49.092;8.542;2023-04-09T09:27:31;100102.38;;;16.13;52.22
9893;BME280;4985;49.092;8.542;2023-04-09T09:30:00;100097.06;;;16.13;52.22
9893;BME280;4985;49.092;8.542;2023-04-09T09:32:27;100098.91;;;16.13;52.25
9893;BME280;4985;49.092;8.542;2023-04-09T09:35:00;100100.75;;;16.12;52.27
9893;BME280;4985;49.092;8.542;2023-04-09T09:37:28;100097.91;;;16.14;52.29
9893;BME280;4985;49.092;8.542;2023-04-09T09:39:55;100089.75;;;16.15;52.27
9893;BME280;4985;49.092;8.542;2023-04-09T09:42:22;100083.63;;;16.15;52.28
9893;BME280;4985;49.092;8.542;2023-04-09T09:44:50;100087.28;;;16.14;52.28
9893;BME280;4985;49.092;8.542;2023-04-09T09:47:19;100083.97;;;16.12;52.29
9893;BME280;4985;49.092;8.542;2023-04-09T09:49:47;100102.03;;;16.16;52.30
9893;BME280;4985;49.092;8.542;2023-04-09T09:52:14;100089.75;;;16.15;52.27
9893;BME280;4985;49.092;8.542;2023-04-09T09:54:42;100091.03;;;16.19;52.24
9893;BME280;4985;49.092;8.542;2023-04-09T09:57:14;100093.03;;;16.17;52.24
9893;BME280;4985;49.092;8.542;2023-04-09T09:59:52;100097.19;;;16.20;52.25
9893;BME280;4985;49.092;8.542;2023-04-09T10:02:22;100091.69;;;16.21;52.24
9893;BME280;4985;49.092;8.542;2023-04-09T10:04:50;100084.37;;;16.23;52.22
9893;BME280;4985;49.092;8.542;2023-04-09T10:07:18;100091.53;;;16.23;52.22
9893;BME280;4985;49.092;8.542;2023-04-09T10:09:48;100091.53;;;16.23;52.21
9893;BME280;4985;49.092;8.542;2023-04-09T10:12:16;100081.72;;;16.23;52.24
9893;BME280;4985;49.092;8.542;2023-04-09T10:14:44;100090.50;;;16.24;52.22
9893;BME280;4985;49.092;8.542;2023-04-09T10:17:12;100092.34;;;16.23;52.22
9893;BME280;4985;49.092;8.542;2023-04-09T10:19:43;100083.38;;;16.24;52.23
9893;BME280;4985;49.092;8.542;2023-04-09T10:22:15;100074.56;;;16.24;52.24
9893;BME280;4985;49.092;8.542;2023-04-09T10:24:43;100081.72;;;16.23;52.25
9893;BME280;4985;49.092;8.542;2023-04-09T10:27:12;100078.06;;;16.24;52.25
9893;BME280;4985;49.092;8.542;2023-04-09T10:29:42;100078.06;;;16.24;52.26
9893;BME280;4985;49.092;8.542;2023-04-09T10:32:09;100078.88;;;16.25;52.28
9893;BME280;4985;49.092;8.542;2023-04-09T10:34:39;100065.31;;;16.20;52.29
9893;BME280;4985;49.092;8.542;2023-04-09T10:37:07;100076.03;;;16.26;52.30
9893;BME280;4985;49.092;8.542;2023-04-09T10:39:38;100076.03;;;16.26;52.29
9893;BME280;4985;49.092;8.542;2023-04-09T10:42:07;100075.03;;;16.27;52.27
9893;BME280;4985;49.092;8.542;2023-04-09T10:44:38;100074.00;;;16.28;52.27
9893;BME280;4985;49.092;8.542;2023-04-09T10:47:07;100070.34;;;16.29;52.26
9893;BME280;4985;49.092;8.542;2023-04-09T10:49:35;100074.50;;;16.32;52.24
9893;BME280;4985;49.092;8.542;2023-04-09T10:52:04;100067.53;;;16.31;52.22
9893;BME280;4985;49.092;8.542;2023-04-09T10:54:44;100058.56;;;16.32;52.24
9893;BME280;4985;49.092;8.542;2023-04-09T10:57:17;100062.69;;;16.35;52.25
9893;BME280;4985;49.092;8.542;2023-04-09T10:59:45;100055.72;;;16.34;52.25
9893;BME280;4985;49.092;8.542;2023-04-09T11:02:44;100052.56;;;16.30;52.25
9893;BME280;4985;49.092;8.542;2023-04-09T11:05:32;100053.25;;;16.32;52.26
9893;BME280;4985;49.092;8.542;2023-04-09T11:08:08;100053.69;;;16.36;52.26
9893;BME280;4985;49.092;8.542;2023-04-09T11:10:35;100059.84;;;16.36;52.27
9893;BME280;4985;49.092;8.542;2023-04-09T11:13:02;100055.34;;;16.37;52.28
9893;BME280;4985;49.092;8.542;2023-04-09T11:15:30;100055.34;;;16.37;52.29
9893;BME280;4985;49.092;8.542;2023-04-09T11:17:57;100063.31;;;16.37;52.30
9893;BME280;4985;49.092;8.542;2023-04-09T11:20:24;100056.16;;;16.37;52.31
9893;BME280;4985;49.092;8.542;2023-04-09T11:22:53;100053.31;;;16.39;52.30
9893;BME280;4985;49.092;8.542;2023-04-09T11:25:22;100050.66;;;16.39;52.30
9893;BME280;4985;49.092;8.542;2023-04-09T11:27:49;100048.00;;;16.39;52.32
9893;BME280;4985;49.092;8.542;2023-04-09T11:30:16;100047.00;;;16.40;52.33
9893;BME280;4985;49.092;8.542;2023-04-09T11:32:43;100045.16;;;16.40;52.34
9893;BME280;4985;49.092;8.542;2023-04-09T11:35:11;100044.97;;;16.42;52.34
9893;BME280;4985;49.092;8.542;2023-04-09T11:37:38;100042.31;;;16.42;52.33
9893;BME280;4985;49.092;8.542;2023-04-09T11:40:06;100042.31;;;16.42;52.33
9893;BME280;4985;49.092;8.542;2023-04-09T11:42:34;100043.00;;;16.44;52.33
9893;BME280;4985;49.092;8.542;2023-04-09T11:45:02;100040.34;;;16.44;52.32
9893;BME280;4985;49.092;8.542;2023-04-09T11:47:30;100045.66;;;16.44;52.31
9893;BME280;4985;49.092;8.542;2023-04-09T11:49:57;100041.97;;;16.45;52.31
9893;BME280;4985;49.092;8.542;2023-04-09T11:52:23;100042.62;;;16.47;52.30
9893;BME280;4985;49.092;8.542;2023-04-09T11:54:52;100034.47;;;16.48;52.29
9893;BME280;4985;49.092;8.542;2023-04-09T11:57:18;100041.41;;;16.49;52.27
9893;BME280;4985;49.092;8.542;2023-04-09T11:59:47;100039.59;;;16.50;52.27
9893;BME280;4985;49.092;8.542;2023-04-09T12:02:16;100040.59;;;16.49;52.27
9893;BME280;4985;49.092;8.542;2023-04-09T12:04:48;100044.72;;;16.51;52.27
9893;BME280;4985;49.092;8.542;2023-04-09T12:07:15;100042.88;;;16.52;52.26
9893;BME280;4985;49.092;8.542;2023-04-09T12:09:46;100040.03;;;16.53;52.22
9893;BME280;4985;49.092;8.542;2023-04-09T12:12:17;100046.22;;;16.54;52.22
9893;BME280;4985;49.092;8.542;2023-04-09T12:14:44;100038.38;;;16.52;52.25
9893;BME280;4985;49.092;8.542;2023-04-09T12:17:12;100032.25;;;16.52;52.27
9893;BME280;4985;49.092;8.542;2023-04-09T12:19:39;100033.25;;;16.51;52.30
9893;BME280;4985;49.092;8.542;2023-04-09T12:22:06;100037.56;;;16.52;52.31
9893;BME280;4985;49.092;8.542;2023-04-09T12:24:32;100035.91;;;16.51;52.33
9893;BME280;4985;49.092;8.542;2023-04-09T12:26:59;100033.06;;;16.52;52.32
9893;BME280;4985;49.092;8.542;2023-04-09T12:29:25;100041.88;;;16.53;52.31
9893;BME280;4985;49.092;8.542;2023-04-09T12:31:54;100038.22;;;16.54;52.29
9893;BME280;4985;49.092;8.542;2023-04-09T12:34:22;100031.72;;;16.56;52.26
9893;BME280;4985;49.092;8.542;2023-04-09T12:36:48;100025.38;;;16.57;52.27
9893;BME280;4985;49.092;8.542;2023-04-09T12:39:15;100024.56;;;16.57;52.25
9893;BME280;4985;49.092;8.542;2023-04-09T12:41:41;100019.25;;;16.57;52.27
9893;BME280;4985;49.092;8.542;2023-04-09T12:44:09;100021.91;;;16.57;52.29
9893;BME280;4985;49.092;8.542;2023-04-09T12:46:35;100020.91;;;16.58;52.29
9893;BME280;4985;49.092;8.542;2023-04-09T12:49:02;100019.87;;;16.59;52.27
9893;BME280;4985;49.092;8.542;2023-04-09T12:51:31;100014.38;;;16.60;52.25
9893;BME280;4985;49.092;8.542;2023-04-09T12:53:57;100016.03;;;16.62;52.21
9893;BME280;4985;49.092;8.542;2023-04-09T12:56:24;100003.56;;;16.62;52.20
9893;BME280;4985;49.092;8.542;2023-04-09T12:58:51;100009.50;;;16.64;52.20
9893;BME280;4985;49.092;8.542;2023-04-09T13:01:18;100012.00;;;16.66;52.16
9893;BME280;4985;49.092;8.542;2023-04-09T13:03:44;100007.53;;;16.66;52.15
9893;BME280;4985;49.092;8.542;2023-04-09T13:06:11;100004.69;;;16.68;52.12
9893;BME280;4985;49.092;8.542;2023-04-09T13:08:39;99994.06;;;16.68;52.10
9893;BME280;4985;49.092;8.542;2023-04-09T13:11:05;99999.19;;;16.69;52.08
9893;BME280;4985;49.092;8.542;2023-04-09T13:13:32;100003.50;;;16.70;52.07